Time;durP1;ratioP1;P1;durP2;ratioP2;P2;SDS_P1;SDS_P2;PMS_P1;PMS_P2;Temp;Humidity;BMP_temperature;BMP_pressure;BME280_temperature;BME280_humidity;BME280_pressure;Samples;Min_cycle;Max_cycle;Signal;HPM_P1;HPM_P2
2021/05/27 00:02:25;;;;;;;;;;;12.00;91.70;;;;;;4304072;33;19998;-72
2021/05/27 00:04:53;;;;;;;;;;;11.90;91.70;;;;;;4304343;33;20043;-72
2021/05/27 00:07:20;;;;;;;;;;;12.00;91.80;;;;;;4304506;33;20029;-72
2021/05/27 00:09:47;;;;;;;;;;;12.00;91.80;;;;;;4304315;33;20015;-72
2021/05/27 00:12:14;;;;;;;;;;;12.00;91.70;;;;;;4303967;33;27019;-72
2021/05/27 00:14:41;;;;;;;;;;;12.00;91.70;;;;;;4291325;33;24474;-72
2021/05/27 00:17:08;;;;;;;;;;;12.00;91.70;;;;;;4304309;33;20006;-72
2021/05/27 00:19:35;;;;;;;;;;;12.00;91.60;;;;;;4304127;33;21514;-72
2021/05/27 00:22:02;;;;;;;;;;;12.00;91.60;;;;;;4303738;33;20001;-72
2021/05/27 00:24:30;;;;;;;;;;;12.00;91.60;;;;;;4304249;33;22199;-72
2021/05/27 00:26:57;;;;;;;;;;;12.00;91.60;;;;;;4290865;33;30063;-72
2021/05/27 00:29:24;;;;;;;;;;;12.00;91.60;;;;;;4303344;33;25199;-72
2021/05/27 00:31:51;;;;;;;;;;;12.00;92.00;;;;;;4304054;33;20047;-72
2021/05/27 00:34:18;;;;;;;;;;;12.00;91.70;;;;;;4304504;33;19998;-72
2021/05/27 00:36:46;;;;;;;;;;;11.90;91.60;;;;;;4303483;33;26391;-72
2021/05/27 00:39:13;;;;;;;;;;;12.00;91.70;;;;;;4303641;33;21000;-71
2021/05/27 00:41:40;;;;;;;;;;;11.90;91.60;;;;;;4303660;33;22379;-71
2021/05/27 00:44:21;;;;;;;;;;;11.90;91.70;;;;;;4303851;33;21289;-71
2021/05/27 00:46:48;;;;;;;;;;;11.90;91.70;;;;;;4303554;33;28580;-72
2021/05/27 00:49:15;;;;;;;;;;;11.90;91.70;;;;;;4303560;33;20009;-71
2021/05/27 00:51:43;;;;;;;;;;;11.90;91.70;;;;;;4290331;33;26719;-72
2021/05/27 00:54:11;;;;;;;;;;;11.90;91.70;;;;;;4291029;33;20034;-71
2021/05/27 00:56:39;;;;;;;;;;;11.90;91.70;;;;;;4303580;33;20444;-72
2021/05/27 00:59:07;;;;;;;;;;;11.90;91.70;;;;;;4303495;33;20026;-72
2021/05/27 01:01:34;;;;;;;;;;;11.90;91.80;;;;;;4302915;33;26532;-72
2021/05/27 01:04:02;;;;;;;;;;;11.90;91.80;;;;;;4303657;33;23313;-72
2021/05/27 01:06:29;;;;;;;;;;;11.90;91.80;;;;;;4303375;33;20013;-72
2021/05/27 01:08:56;;;;;;;;;;;11.90;91.70;;;;;;4303297;33;20054;-72
2021/05/27 01:11:24;;;;;;;;;;;11.90;91.70;;;;;;4289718;33;42428;-72
2021/05/27 01:13:51;;;;;;;;;;;11.90;91.70;;;;;;4302659;33;43248;-72
2021/05/27 01:16:19;;;;;;;;;;;11.90;91.70;;;;;;4289157;33;43266;-72
2021/05/27 01:18:47;;;;;;;;;;;11.90;91.70;;;;;;4302397;33;44242;-72
2021/05/27 01:21:15;;;;;;;;;;;11.90;91.80;;;;;;4289230;33;44735;-72
2021/05/27 01:23:42;;;;;;;;;;;11.90;91.80;;;;;;4303449;33;20432;-72
2021/05/27 01:26:09;;;;;;;;;;;11.90;91.80;;;;;;4302114;33;44339;-72
2021/05/27 01:28:37;;;;;;;;;;;11.90;91.80;;;;;;4277356;33;43380;-72
2021/05/27 01:31:06;;;;;;;;;;;11.90;91.80;;;;;;4289565;33;43574;-72
2021/05/27 01:33:33;;;;;;;;;;;11.90;91.80;;;;;;4302789;33;43493;-72
2021/05/27 01:36:00;;;;;;;;;;;11.90;91.80;;;;;;4303238;33;20054;-72
2021/05/27 01:38:28;;;;;;;;;;;11.90;91.80;;;;;;4302408;33;44320;-72
2021/05/27 01:40:56;;;;;;;;;;;11.90;91.70;;;;;;4289116;33;41993;-72
2021/05/27 01:43:24;;;;;;;;;;;11.90;91.80;;;;;;4302174;33;42966;-72
2021/05/27 01:45:52;;;;;;;;;;;11.90;91.80;;;;;;4302964;33;31689;-72
2021/05/27 01:48:19;;;;;;;;;;;11.80;91.80;;;;;;4302138;33;43354;-72
2021/05/27 01:50:47;;;;;;;;;;;11.80;91.80;;;;;;4289035;33;42682;-72
2021/05/27 01:53:15;;;;;;;;;;;11.80;91.80;;;;;;4289127;33;44597;-72
2021/05/27 01:55:44;;;;;;;;;;;11.80;91.80;;;;;;4302101;33;44257;-72
2021/05/27 01:58:11;;;;;;;;;;;11.80;91.90;;;;;;4301756;33;43359;-72
2021/05/27 02:00:39;;;;;;;;;;;11.80;91.90;;;;;;4301444;33;43351;-72
2021/05/27 02:03:06;;;;;;;;;;;11.80;91.90;;;;;;4302048;33;43363;-72
2021/05/27 02:05:34;;;;;;;;;;;11.80;91.90;;;;;;4276587;33;44727;-71
2021/05/27 02:08:01;;;;;;;;;;;11.80;91.80;;;;;;4301591;33;42490;-72
2021/05/27 02:10:31;;;;;;;;;;;11.80;91.90;;;;;;4289982;33;20021;-72
2021/05/27 02:13:00;;;;;;;;;;;11.90;91.90;;;;;;4290685;33;20020;-72
2021/05/27 02:15:27;;;;;;;;;;;11.80;91.90;;;;;;4301481;33;43480;-72
2021/05/27 02:17:54;;;;;;;;;;;11.80;91.90;;;;;;4301770;33;41815;-71
2021/05/27 02:20:21;;;;;;;;;;;11.80;92.00;;;;;;4301836;33;43191;-72
2021/05/27 02:22:48;;;;;;;;;;;11.80;92.30;;;;;;4301324;33;43616;-72
2021/05/27 02:25:15;;;;;;;;;;;11.80;91.90;;;;;;4301286;33;44695;-72
2021/05/27 02:27:42;;;;;;;;;;;11.80;92.00;;;;;;4301473;33;43045;-72
2021/05/27 02:30:10;;;;;;;;;;;11.80;92.00;;;;;;4301496;33;44244;-72
2021/05/27 02:32:37;;;;;;;;;;;11.80;92.00;;;;;;4289937;33;20050;-72
2021/05/27 02:35:05;;;;;;;;;;;11.80;92.40;;;;;;4288870;33;43275;-72
2021/05/27 02:37:32;;;;;;;;;;;11.80;92.10;;;;;;4301647;33;42963;-72
2021/05/27 02:40:00;;;;;;;;;;;11.70;92.10;;;;;;4301228;33;43212;-72
2021/05/27 02:42:27;;;;;;;;;;;11.70;92.10;;;;;;4301338;33;44256;-72
2021/05/27 02:44:55;;;;;;;;;;;11.70;92.10;;;;;;4302908;33;20002;-72
2021/05/27 02:47:22;;;;;;;;;;;11.70;92.10;;;;;;4302148;33;20744;-72
2021/05/27 02:49:49;;;;;;;;;;;11.70;92.20;;;;;;4301709;33;37830;-71
2021/05/27 02:52:16;;;;;;;;;;;11.70;92.20;;;;;;4301362;33;42399;-72
2021/05/27 02:54:43;;;;;;;;;;;11.70;92.20;;;;;;4301065;33;44298;-72
2021/05/27 02:57:10;;;;;;;;;;;11.70;92.30;;;;;;4301049;33;43619;-72
2021/05/27 02:59:37;;;;;;;;;;;11.70;92.30;;;;;;4288031;33;44347;-72
2021/05/27 03:02:05;;;;;;;;;;;11.70;92.30;;;;;;4300866;33;44318;-72
2021/05/27 03:04:32;;;;;;;;;;;11.70;92.30;;;;;;4301497;33;44611;-73
2021/05/27 03:06:59;;;;;;;;;;;11.70;92.30;;;;;;4301103;33;43274;-72
2021/05/27 03:09:26;;;;;;;;;;;11.70;92.40;;;;;;4300936;33;44272;-72
2021/05/27 03:11:54;;;;;;;;;;;11.70;92.40;;;;;;4300961;33;43267;-72
2021/05/27 03:14:21;;;;;;;;;;;11.70;92.40;;;;;;4301256;33;42523;-72
2021/05/27 03:16:49;;;;;;;;;;;11.70;92.40;;;;;;4277115;33;20010;-72
2021/05/27 03:19:16;;;;;;;;;;;11.70;92.30;;;;;;4302284;33;29203;-72
2021/05/27 03:21:43;;;;;;;;;;;11.70;92.40;;;;;;4291166;33;27752;-72
2021/05/27 03:24:10;;;;;;;;;;;11.60;92.40;;;;;;4292229;33;20024;-72
2021/05/27 03:26:37;;;;;;;;;;;11.60;92.40;;;;;;4304344;33;24883;-72
2021/05/27 03:29:04;;;;;;;;;;;11.60;92.40;;;;;;4291197;33;25104;-72
2021/05/27 03:31:31;;;;;;;;;;;11.60;92.40;;;;;;4292390;33;20018;-72
2021/05/27 03:33:58;;;;;;;;;;;11.70;92.40;;;;;;4304733;33;22346;-72
2021/05/27 03:36:25;;;;;;;;;;;11.60;92.40;;;;;;4279347;33;31410;-72
2021/05/27 03:38:52;;;;;;;;;;;11.60;92.40;;;;;;4304909;33;20009;-72
2021/05/27 03:41:19;;;;;;;;;;;11.60;92.50;;;;;;4304422;33;29959;-72
2021/05/27 03:43:46;;;;;;;;;;;11.60;92.50;;;;;;4304391;33;25617;-72
2021/05/27 03:46:13;;;;;;;;;;;11.60;92.50;;;;;;4304602;33;20065;-72
2021/05/27 03:48:41;;;;;;;;;;;11.60;92.50;;;;;;4304454;33;24142;-72
2021/05/27 03:51:08;;;;;;;;;;;11.60;92.50;;;;;;4304577;33;25135;-72
2021/05/27 03:53:35;;;;;;;;;;;11.60;92.50;;;;;;4304811;33;20005;-72
2021/05/27 03:56:02;;;;;;;;;;;11.60;92.50;;;;;;4304521;33;20017;-72
2021/05/27 04:01:15;;;;;;;;;;;11.50;92.50;;;;;;4303901;33;24836;-72
2021/05/27 04:09:13;;;;;;;;;;;11.60;92.50;;;;;;4304418;33;20076;-72
2021/05/27 04:11:41;;;;;;;;;;;11.50;92.50;;;;;;4304329;33;20020;-72
2021/05/27 04:14:08;;;;;;;;;;;11.50;92.60;;;;;;4290638;33;27682;-72
2021/05/27 04:16:35;;;;;;;;;;;11.60;92.60;;;;;;4303703;33;21917;-72
2021/05/27 04:19:03;;;;;;;;;;;11.50;92.60;;;;;;4290766;33;25708;-72
2021/05/27 04:21:30;;;;;;;;;;;11.50;92.60;;;;;;4303413;33;42963;-72
2021/05/27 04:23:57;;;;;;;;;;;11.60;92.60;;;;;;4303628;33;44931;-73
2021/05/27 04:26:24;;;;;;;;;;;11.60;92.60;;;;;;4303417;33;43414;-72
2021/05/27 04:28:51;;;;;;;;;;;11.60;92.60;;;;;;4289804;33;43482;-72
2021/05/27 04:31:18;;;;;;;;;;;11.60;92.60;;;;;;4302511;33;44322;-72
2021/05/27 04:33:46;;;;;;;;;;;11.60;92.60;;;;;;4302873;33;43446;-72
2021/05/27 04:36:14;;;;;;;;;;;11.60;92.60;;;;;;4303267;33;44516;-72
2021/05/27 04:38:42;;;;;;;;;;;11.60;92.60;;;;;;4303177;33;44249;-72
2021/05/27 04:41:09;;;;;;;;;;;11.60;92.60;;;;;;4302788;33;42970;-72
2021/05/27 04:43:38;;;;;;;;;;;11.60;92.70;;;;;;4302745;33;43290;-72
2021/05/27 04:46:05;;;;;;;;;;;11.50;92.70;;;;;;4302853;33;44247;-71
2021/05/27 04:48:32;;;;;;;;;;;11.60;92.70;;;;;;4302646;33;43579;-72
2021/05/27 04:50:59;;;;;;;;;;;11.50;92.80;;;;;;4289570;33;44633;-72
2021/05/27 04:53:26;;;;;;;;;;;11.50;92.70;;;;;;4302969;33;43573;-72
2021/05/27 04:55:54;;;;;;;;;;;11.50;92.80;;;;;;4302639;33;43645;-72
2021/05/27 04:58:21;;;;;;;;;;;11.50;92.70;;;;;;4289867;33;43076;-72
2021/05/27 05:00:48;;;;;;;;;;;11.50;92.80;;;;;;4302441;33;43965;-72
2021/05/27 05:03:16;;;;;;;;;;;11.60;92.80;;;;;;4289513;33;42451;-72
2021/05/27 05:05:43;;;;;;;;;;;11.60;92.80;;;;;;4303137;33;35711;-72
2021/05/27 05:08:10;;;;;;;;;;;11.60;92.80;;;;;;4302387;33;43790;-72
2021/05/27 05:10:37;;;;;;;;;;;11.60;92.80;;;;;;4302301;33;44869;-72
2021/05/27 05:13:05;;;;;;;;;;;11.60;92.80;;;;;;4302250;33;43657;-72
2021/05/27 05:15:33;;;;;;;;;;;11.60;92.80;;;;;;4302857;33;44240;-72
2021/05/27 05:18:02;;;;;;;;;;;11.60;93.10;;;;;;4302611;33;43665;-72
2021/05/27 05:20:30;;;;;;;;;;;11.60;92.80;;;;;;4289251;33;43666;-72
2021/05/27 05:22:57;;;;;;;;;;;11.50;92.80;;;;;;4302634;33;44394;-72
2021/05/27 05:25:25;;;;;;;;;;;11.60;92.90;;;;;;4289490;33;44185;-72
2021/05/27 05:27:53;;;;;;;;;;;11.60;92.90;;;;;;4302578;33;44075;-72
2021/05/27 05:30:21;;;;;;;;;;;11.60;92.90;;;;;;4302475;33;44672;-72
2021/05/27 05:32:48;;;;;;;;;;;11.60;92.90;;;;;;4302036;33;43399;-72
2021/05/27 05:35:16;;;;;;;;;;;11.60;92.90;;;;;;4302409;33;44225;-72
2021/05/27 05:37:44;;;;;;;;;;;11.60;92.90;;;;;;4303062;33;29677;-72
2021/05/27 05:40:12;;;;;;;;;;;11.60;92.90;;;;;;4302518;33;25485;-72
2021/05/27 05:42:39;;;;;;;;;;;11.60;93.00;;;;;;4302428;33;20010;-72
2021/05/27 05:45:07;;;;;;;;;;;11.60;93.00;;;;;;4289353;33;29396;-72
2021/05/27 05:47:35;;;;;;;;;;;11.60;93.00;;;;;;4303149;33;20467;-73
2021/05/27 05:50:03;;;;;;;;;;;11.60;93.00;;;;;;4303164;33;20013;-72
2021/05/27 05:52:30;;;;;;;;;;;11.60;93.00;;;;;;4289965;33;20018;-72
2021/05/27 05:54:57;;;;;;;;;;;11.60;93.10;;;;;;4302974;33;20014;-72
2021/05/27 05:57:25;;;;;;;;;;;11.60;93.10;;;;;;4289716;33;29106;-72
2021/05/27 05:59:52;;;;;;;;;;;11.50;93.10;;;;;;4302576;33;22710;-72
2021/05/27 06:02:19;;;;;;;;;;;11.60;93.20;;;;;;4302785;33;20442;-73
2021/05/27 06:04:46;;;;;;;;;;;11.50;93.20;;;;;;4302435;33;20021;-72
2021/05/27 06:07:13;;;;;;;;;;;11.50;93.20;;;;;;4302283;33;22040;-72
2021/05/27 06:09:40;;;;;;;;;;;11.60;93.20;;;;;;4289604;33;23394;-72
2021/05/27 06:12:07;;;;;;;;;;;11.60;93.30;;;;;;4303180;33;20365;-72
2021/05/27 06:14:35;;;;;;;;;;;11.60;93.30;;;;;;4302044;33;25299;-72
2021/05/27 06:17:02;;;;;;;;;;;11.60;93.30;;;;;;4302514;33;20416;-72
2021/05/27 06:19:29;;;;;;;;;;;11.60;93.30;;;;;;4302215;33;21907;-72
2021/05/27 06:21:56;;;;;;;;;;;11.60;93.30;;;;;;4289517;33;25348;-72
2021/05/27 06:24:24;;;;;;;;;;;11.60;93.20;;;;;;4289499;33;23116;-72
2021/05/27 06:26:51;;;;;;;;;;;11.60;93.30;;;;;;4302370;33;24164;-72
2021/05/27 06:29:18;;;;;;;;;;;11.60;93.30;;;;;;4289551;33;20014;-72
2021/05/27 06:31:46;;;;;;;;;;;11.60;93.30;;;;;;4289737;33;20066;-72
2021/05/27 06:34:13;;;;;;;;;;;11.60;93.40;;;;;;4302622;33;20123;-73
2021/05/27 06:36:40;;;;;;;;;;;11.60;93.30;;;;;;4302317;33;20005;-73
2021/05/27 06:39:07;;;;;;;;;;;11.60;93.30;;;;;;4302185;33;20881;-72
2021/05/27 06:41:34;;;;;;;;;;;11.60;93.40;;;;;;4302316;33;23759;-72
2021/05/27 06:44:01;;;;;;;;;;;11.60;93.40;;;;;;4289219;33;20042;-73
2021/05/27 06:46:29;;;;;;;;;;;11.60;93.50;;;;;;4288620;33;21695;-72
2021/05/27 06:48:57;;;;;;;;;;;11.60;93.40;;;;;;4289442;33;20010;-72
2021/05/27 06:51:24;;;;;;;;;;;11.60;93.50;;;;;;4302113;33;24476;-72
2021/05/27 06:53:52;;;;;;;;;;;11.60;93.50;;;;;;4301998;33;20047;-72
2021/05/27 06:56:19;;;;;;;;;;;11.60;93.40;;;;;;4301759;33;20242;-72
2021/05/27 06:58:46;;;;;;;;;;;11.60;93.50;;;;;;4301605;33;23385;-73
2021/05/27 07:01:13;;;;;;;;;;;11.70;93.50;;;;;;4301649;33;25595;-72
2021/05/27 07:03:40;;;;;;;;;;;11.70;93.60;;;;;;4302546;33;20006;-72
2021/05/27 07:06:10;;;;;;;;;;;11.60;93.50;;;;;;4302012;33;24665;-72
2021/05/27 07:08:39;;;;;;;;;;;11.70;93.50;;;;;;4301447;33;27911;-72
2021/05/27 07:11:06;;;;;;;;;;;11.70;93.50;;;;;;4301724;33;28737;-72
2021/05/27 07:13:33;;;;;;;;;;;11.70;93.60;;;;;;4289513;33;20018;-72
2021/05/27 07:16:00;;;;;;;;;;;11.70;93.50;;;;;;4301932;33;20329;-72
2021/05/27 07:18:28;;;;;;;;;;;11.80;93.60;;;;;;4302165;33;22807;-72
2021/05/27 07:20:55;;;;;;;;;;;11.70;93.50;;;;;;4301896;33;25895;-73
2021/05/27 07:23:22;;;;;;;;;;;11.70;93.50;;;;;;4288975;33;26472;-72
2021/05/27 07:25:49;;;;;;;;;;;11.70;93.50;;;;;;4288922;33;20370;-73
2021/05/27 07:28:22;;;;;;;;;;;11.70;93.60;;;;;;4288601;33;20722;-72
2021/05/27 07:30:49;;;;;;;;;;;11.70;93.60;;;;;;4302429;33;20050;-72
2021/05/27 07:33:18;;;;;;;;;;;11.70;93.60;;;;;;4301740;33;29913;-72
2021/05/27 07:35:46;;;;;;;;;;;11.70;93.70;;;;;;4301276;33;24886;-72
2021/05/27 07:38:13;;;;;;;;;;;11.70;93.60;;;;;;4288178;33;34076;-72
2021/05/27 07:40:40;;;;;;;;;;;11.70;93.60;;;;;;4288216;33;28228;-73
2021/05/27 07:43:07;;;;;;;;;;;11.70;93.60;;;;;;4302368;33;20011;-72
2021/05/27 07:45:34;;;;;;;;;;;11.80;93.60;;;;;;4288425;33;25574;-72
2021/05/27 07:48:02;;;;;;;;;;;11.80;93.60;;;;;;4288275;33;21078;-72
2021/05/27 07:50:29;;;;;;;;;;;11.80;93.50;;;;;;4288590;33;20009;-72
2021/05/27 07:52:56;;;;;;;;;;;11.80;93.60;;;;;;4302361;33;20007;-72
2021/05/27 07:55:26;;;;;;;;;;;11.80;93.50;;;;;;4288840;33;20054;-72
2021/05/27 07:57:54;;;;;;;;;;;11.80;93.50;;;;;;4301738;33;22400;-72
2021/05/27 08:00:21;;;;;;;;;;;11.80;93.50;;;;;;4288452;33;29291;-72
2021/05/27 08:02:50;;;;;;;;;;;11.80;93.90;;;;;;4302496;33;20074;-72
2021/05/27 08:05:20;;;;;;;;;;;11.70;93.60;;;;;;4302081;33;20026;-72
2021/05/27 08:07:48;;;;;;;;;;;11.80;93.70;;;;;;4304427;33;20042;-73
2021/05/27 08:10:16;;;;;;;;;;;11.80;93.70;;;;;;4303223;33;44691;-72
2021/05/27 08:12:43;;;;;;;;;;;11.70;93.60;;;;;;4290174;33;41929;-72
2021/05/27 08:15:10;;;;;;;;;;;11.80;93.60;;;;;;4291448;33;20431;-72
2021/05/27 08:17:38;;;;;;;;;;;11.80;93.60;;;;;;4290282;33;43563;-72
2021/05/27 08:20:07;;;;;;;;;;;11.80;93.50;;;;;;4290416;33;43595;-72
2021/05/27 08:22:34;;;;;;;;;;;11.80;93.50;;;;;;4303057;33;42673;-72
2021/05/27 08:25:02;;;;;;;;;;;11.80;93.50;;;;;;4289956;33;43448;-72
2021/05/27 08:27:30;;;;;;;;;;;11.80;93.50;;;;;;4303101;33;43971;-72
2021/05/27 08:29:59;;;;;;;;;;;11.80;93.40;;;;;;4304501;33;20014;-72
2021/05/27 08:32:27;;;;;;;;;;;11.80;93.40;;;;;;4302819;33;42336;-72
2021/05/27 08:34:54;;;;;;;;;;;11.80;93.50;;;;;;4290289;33;43645;-73
2021/05/27 08:37:21;;;;;;;;;;;11.80;93.50;;;;;;4289761;33;44576;-73
2021/05/27 08:39:48;;;;;;;;;;;11.80;93.50;;;;;;4303294;33;44649;-72
2021/05/27 08:42:16;;;;;;;;;;;11.80;93.50;;;;;;4302881;33;44964;-72
2021/05/27 08:44:45;;;;;;;;;;;11.80;93.40;;;;;;4289807;33;43137;-72
2021/05/27 08:47:14;;;;;;;;;;;11.80;93.40;;;;;;4303988;33;20054;-72
2021/05/27 08:49:43;;;;;;;;;;;11.80;93.40;;;;;;4290174;33;43064;-73
2021/05/27 08:52:10;;;;;;;;;;;11.80;93.40;;;;;;4302706;33;42328;-72
2021/05/27 08:54:37;;;;;;;;;;;11.90;93.40;;;;;;4304079;33;20017;-72
2021/05/27 08:57:04;;;;;;;;;;;11.90;93.40;;;;;;4289954;33;43387;-72
2021/05/27 08:59:32;;;;;;;;;;;11.90;93.40;;;;;;4302515;33;44548;-72
2021/05/27 09:02:07;;;;;;;;;;;11.90;93.40;;;;;;4289559;33;43271;-74
2021/05/27 09:04:35;;;;;;;;;;;12.00;93.50;;;;;;4302765;33;43385;-73
2021/05/27 09:07:03;;;;;;;;;;;12.00;93.40;;;;;;4289781;33;39208;-72
2021/05/27 09:09:50;;;;;;;;;;;12.00;93.40;;;;;;4303192;33;32712;-72
2021/05/27 09:12:24;;;;;;;;;;;12.00;93.40;;;;;;4303283;33;24338;-72
2021/05/27 09:14:51;;;;;;;;;;;12.00;93.40;;;;;;4290618;33;20078;-73
2021/05/27 09:17:18;;;;;;;;;;;12.00;93.40;;;;;;4303076;33;26729;-72
2021/05/27 09:20:05;;;;;;;;;;;12.10;93.40;;;;;;4303290;33;29217;-72
2021/05/27 09:22:32;;;;;;;;;;;12.10;93.30;;;;;;4290084;33;25429;-72
2021/05/27 09:25:00;;;;;;;;;;;12.10;93.20;;;;;;4303003;33;29241;-73
2021/05/27 09:27:48;;;;;;;;;;;12.10;93.20;;;;;;4303536;33;20089;-72
2021/05/27 09:30:15;;;;;;;;;;;12.20;93.30;;;;;;4303029;33;31339;-73
2021/05/27 09:33:02;;;;;;;;;;;12.20;93.10;;;;;;4303387;33;20006;-72
2021/05/27 09:35:30;;;;;;;;;;;12.20;93.10;;;;;;4303219;33;20396;-73
2021/05/27 09:37:57;;;;;;;;;;;12.20;93.00;;;;;;4302462;33;29438;-73
2021/05/27 09:40:37;;;;;;;;;;;12.20;93.00;;;;;;4303405;33;20037;-72
2021/05/27 09:43:06;;;;;;;;;;;12.20;93.00;;;;;;4302965;33;30387;-73
2021/05/27 09:45:34;;;;;;;;;;;12.20;93.00;;;;;;4302816;33;24091;-72
2021/05/27 09:48:16;;;;;;;;;;;12.20;93.10;;;;;;4303162;33;20029;-73
2021/05/27 09:50:44;;;;;;;;;;;12.20;93.10;;;;;;4289931;33;20050;-72
2021/05/27 09:53:12;;;;;;;;;;;12.20;93.10;;;;;;4301910;33;20013;-73
2021/05/27 09:55:39;;;;;;;;;;;12.20;93.10;;;;;;4289560;33;29659;-72
2021/05/27 09:58:08;;;;;;;;;;;12.20;93.00;;;;;;4302744;33;28583;-72
2021/05/27 10:00:35;;;;;;;;;;;12.20;93.00;;;;;;4289330;33;20029;-73
2021/05/27 10:03:21;;;;;;;;;;;12.20;93.00;;;;;;4303557;33;20024;-73
2021/05/27 10:05:49;;;;;;;;;;;12.30;93.00;;;;;;4302573;33;27627;-73
2021/05/27 10:08:17;;;;;;;;;;;12.30;93.00;;;;;;4302652;33;28197;-72
2021/05/27 10:11:04;;;;;;;;;;;12.40;93.00;;;;;;4289245;33;29895;-73
2021/05/27 10:13:32;;;;;;;;;;;12.30;92.90;;;;;;4302617;33;20055;-73
2021/05/27 10:15:59;;;;;;;;;;;12.30;93.00;;;;;;4289725;33;23356;-73
2021/05/27 10:18:27;;;;;;;;;;;12.40;93.00;;;;;;4302405;33;21618;-73
2021/05/27 10:20:54;;;;;;;;;;;12.30;92.90;;;;;;4302278;33;25204;-73
2021/05/27 10:23:22;;;;;;;;;;;12.30;92.90;;;;;;4302830;33;20014;-73
2021/05/27 10:25:52;;;;;;;;;;;12.40;92.90;;;;;;4276948;33;22329;-73
2021/05/27 10:28:19;;;;;;;;;;;12.40;92.90;;;;;;4288601;33;20674;-73
2021/05/27 10:30:47;;;;;;;;;;;12.40;92.90;;;;;;4302170;33;20002;-73
2021/05/27 10:33:19;;;;;;;;;;;12.40;92.90;;;;;;4302773;33;20011;-73
2021/05/27 10:35:50;;;;;;;;;;;12.40;92.80;;;;;;4289166;33;25494;-72
2021/05/27 10:38:41;;;;;;;;;;;12.50;92.80;;;;;;4289835;33;20084;-73
2021/05/27 10:41:08;;;;;;;;;;;12.50;92.70;;;;;;4276680;33;40534;-73
2021/05/27 10:43:36;;;;;;;;;;;12.50;92.70;;;;;;4301476;33;42611;-73
2021/05/27 10:46:04;;;;;;;;;;;12.50;92.70;;;;;;4301193;33;43299;-73
2021/05/27 10:48:38;;;;;;;;;;;12.50;92.70;;;;;;4288198;33;43361;-73
2021/05/27 10:51:09;;;;;;;;;;;12.50;92.70;;;;;;4301446;33;43429;-73
2021/05/27 10:53:40;;;;;;;;;;;12.50;92.70;;;;;;4301341;33;43093;-73
2021/05/27 10:56:09;;;;;;;;;;;12.50;92.80;;;;;;4289921;33;20104;-73
2021/05/27 10:58:45;;;;;;;;;;;12.50;92.90;;;;;;4288453;33;44466;-73
2021/05/27 11:01:16;;;;;;;;;;;12.50;92.90;;;;;;4301599;33;29221;-73
2021/05/27 11:03:46;;;;;;;;;;;12.50;93.00;;;;;;4301702;33;23660;-73
2021/05/27 11:06:16;;;;;;;;;;;12.50;93.00;;;;;;4302245;33;20014;-73
2021/05/27 11:08:43;;;;;;;;;;;12.50;93.00;;;;;;4301942;33;20612;-72
2021/05/27 11:11:29;;;;;;;;;;;12.50;92.90;;;;;;4301836;33;31260;-72
2021/05/27 11:14:15;;;;;;;;;;;12.50;93.00;;;;;;4301769;33;28056;-73
2021/05/27 11:17:18;;;;;;;;;;;12.60;93.10;;;;;;4302120;33;26481;-72
2021/05/27 11:22:38;;;;;;;;;;;12.70;93.20;;;;;;4302037;33;22302;-73
2021/05/27 11:25:12;;;;;;;;;;;12.70;93.10;;;;;;4288329;33;43927;-73
2021/05/27 11:27:45;;;;;;;;;;;12.70;93.00;;;;;;4288639;33;29651;-72
2021/05/27 11:30:15;;;;;;;;;;;12.80;92.90;;;;;;4301794;33;26827;-73
2021/05/27 11:32:43;;;;;;;;;;;12.80;92.90;;;;;;4288079;33;28052;-73
2021/05/27 11:35:10;;;;;;;;;;;12.80;92.90;;;;;;4288893;33;20024;-73
2021/05/27 11:37:38;;;;;;;;;;;12.80;92.80;;;;;;4301533;33;26456;-72
2021/05/27 11:40:10;;;;;;;;;;;12.80;92.90;;;;;;4277527;33;19994;-72
2021/05/27 11:42:38;;;;;;;;;;;12.80;92.90;;;;;;4291648;33;20133;-72
2021/05/27 11:45:07;;;;;;;;;;;12.90;92.80;;;;;;4304508;33;25113;-73
2021/05/27 11:47:34;;;;;;;;;;;12.90;92.90;;;;;;4291614;33;20014;-73
2021/05/27 11:50:10;;;;;;;;;;;12.90;92.90;;;;;;4291584;33;20384;-72
2021/05/27 11:52:37;;;;;;;;;;;13.00;93.00;;;;;;4304271;33;24465;-72
2021/05/27 11:55:05;;;;;;;;;;;13.00;92.80;;;;;;4304690;33;23682;-72
2021/05/27 11:57:43;;;;;;;;;;;13.00;92.80;;;;;;4291171;33;26869;-72
2021/05/27 12:00:12;;;;;;;;;;;13.10;92.90;;;;;;4290997;33;29445;-72
2021/05/27 12:02:46;;;;;;;;;;;13.00;92.80;;;;;;4304459;33;20083;-73
2021/05/27 12:05:18;;;;;;;;;;;13.00;92.70;;;;;;4304031;33;20002;-72
2021/05/27 12:08:02;;;;;;;;;;;13.10;92.70;;;;;;4304244;33;28361;-72
2021/05/27 12:10:29;;;;;;;;;;;13.10;92.80;;;;;;4303276;33;44542;-72
2021/05/27 12:12:59;;;;;;;;;;;13.10;92.90;;;;;;4291821;33;20020;-72
2021/05/27 12:15:28;;;;;;;;;;;13.20;93.20;;;;;;4290233;33;43530;-72
2021/05/27 12:17:57;;;;;;;;;;;13.30;92.90;;;;;;4303334;33;43666;-72
2021/05/27 12:20:31;;;;;;;;;;;13.40;92.70;;;;;;4304401;33;20070;-72
2021/05/27 12:23:06;;;;;;;;;;;13.40;92.30;;;;;;4304514;33;20069;-73
2021/05/27 12:25:34;;;;;;;;;;;13.40;92.30;;;;;;4278441;33;43867;-72
2021/05/27 12:28:10;;;;;;;;;;;13.50;92.30;;;;;;4303225;33;42117;-72
2021/05/27 12:30:43;;;;;;;;;;;13.50;92.30;;;;;;4304554;33;20082;-73
2021/05/27 12:33:15;;;;;;;;;;;13.50;92.30;;;;;;4304335;33;20026;-73
2021/05/27 12:35:42;;;;;;;;;;;13.50;92.30;;;;;;4303165;33;43649;-72
2021/05/27 12:38:20;;;;;;;;;;;13.50;92.30;;;;;;4289787;33;45300;-72
2021/05/27 12:40:48;;;;;;;;;;;13.60;92.30;;;;;;4302822;33;44632;-72
2021/05/27 12:43:21;;;;;;;;;;;13.60;92.20;;;;;;4302826;33;43383;-72
2021/05/27 12:45:49;;;;;;;;;;;13.60;92.00;;;;;;4302720;33;44599;-72
2021/05/27 12:48:16;;;;;;;;;;;13.70;92.00;;;;;;4291472;33;20018;-72
2021/05/27 12:50:44;;;;;;;;;;;13.70;91.90;;;;;;4303145;33;43285;-72
2021/05/27 12:53:27;;;;;;;;;;;13.70;91.80;;;;;;4289493;33;43286;-72
2021/05/27 12:55:55;;;;;;;;;;;13.70;91.90;;;;;;4303233;33;44519;-72
2021/05/27 12:58:32;;;;;;;;;;;13.70;91.90;;;;;;4303099;33;43406;-72
2021/05/27 13:01:00;;;;;;;;;;;13.70;91.90;;;;;;4302776;33;44691;-72
2021/05/27 13:03:29;;;;;;;;;;;13.70;91.70;;;;;;4302583;33;43913;-72
2021/05/27 13:06:09;;;;;;;;;;;13.80;91.80;;;;;;4303111;33;44111;-72
2021/05/27 13:08:38;;;;;;;;;;;13.70;91.70;;;;;;4289715;33;44982;-72
2021/05/27 13:11:20;;;;;;;;;;;13.70;91.70;;;;;;4302363;33;44338;-72
2021/05/27 13:13:48;;;;;;;;;;;13.80;91.40;;;;;;4290320;33;20002;-72
2021/05/27 13:16:30;;;;;;;;;;;13.90;91.60;;;;;;4302416;33;44619;-72
2021/05/27 13:18:57;;;;;;;;;;;13.90;91.50;;;;;;4302792;33;27011;-72
2021/05/27 13:21:34;;;;;;;;;;;14.00;91.50;;;;;;4302444;33;44053;-73
2021/05/27 13:24:12;;;;;;;;;;;14.00;91.50;;;;;;4289609;33;42144;-72
2021/05/27 13:26:39;;;;;;;;;;;14.00;91.30;;;;;;4302840;33;43669;-72
2021/05/27 13:29:07;;;;;;;;;;;14.00;91.30;;;;;;4302738;33;41888;-73
2021/05/27 13:31:35;;;;;;;;;;;14.00;91.10;;;;;;4302517;33;43309;-72
2021/05/27 13:34:02;;;;;;;;;;;14.10;91.30;;;;;;4289227;33;43757;-72
2021/05/27 13:36:30;;;;;;;;;;;14.10;91.30;;;;;;4302671;33;43291;-72
2021/05/27 13:38:57;;;;;;;;;;;14.10;91.20;;;;;;4289481;33;44507;-72
2021/05/27 13:41:26;;;;;;;;;;;14.20;91.30;;;;;;4277375;33;45043;-72
2021/05/27 13:43:58;;;;;;;;;;;14.20;90.90;;;;;;4302534;33;44352;-72
2021/05/27 13:46:25;;;;;;;;;;;14.10;91.10;;;;;;4302368;33;44620;-73
2021/05/27 13:48:51;;;;;;;;;;;14.10;91.10;;;;;;4302357;33;44481;-72
2021/05/27 13:51:19;;;;;;;;;;;14.10;91.10;;;;;;4301874;33;43324;-73
2021/05/27 13:53:46;;;;;;;;;;;14.20;91.10;;;;;;4302232;33;44529;-73
2021/05/27 13:56:20;;;;;;;;;;;14.20;91.00;;;;;;4302233;33;44501;-72
2021/05/27 13:58:51;;;;;;;;;;;14.20;91.10;;;;;;4302261;33;43526;-72
2021/05/27 14:01:20;;;;;;;;;;;14.30;91.10;;;;;;4301842;33;42673;-72
2021/05/27 14:03:47;;;;;;;;;;;14.30;90.90;;;;;;4288352;33;43363;-72
2021/05/27 14:06:15;;;;;;;;;;;14.30;91.00;;;;;;4302291;33;21423;-72
2021/05/27 14:08:44;;;;;;;;;;;14.30;90.90;;;;;;4302504;33;26591;-72
2021/05/27 14:11:11;;;;;;;;;;;14.30;90.90;;;;;;4302543;33;22869;-72
2021/05/27 14:13:38;;;;;;;;;;;14.30;90.90;;;;;;4302036;33;22811;-73
2021/05/27 14:16:05;;;;;;;;;;;14.30;91.00;;;;;;4302068;33;24951;-72
2021/05/27 14:18:32;;;;;;;;;;;14.30;91.00;;;;;;4302583;33;28577;-72
2021/05/27 14:21:00;;;;;;;;;;;14.40;91.00;;;;;;4302263;33;24346;-72
2021/05/27 14:23:27;;;;;;;;;;;14.40;90.90;;;;;;4289492;33;26713;-72
2021/05/27 14:25:55;;;;;;;;;;;14.40;90.90;;;;;;4302550;33;24202;-72
2021/05/27 14:28:22;;;;;;;;;;;14.40;90.80;;;;;;4301811;33;27018;-72
2021/05/27 14:30:49;;;;;;;;;;;14.40;90.80;;;;;;4301978;33;26499;-72
2021/05/27 14:33:18;;;;;;;;;;;14.40;90.80;;;;;;4302514;33;20426;-72
2021/05/27 14:35:45;;;;;;;;;;;14.50;90.80;;;;;;4302589;33;20014;-72
2021/05/27 14:38:12;;;;;;;;;;;14.50;90.80;;;;;;4302510;33;20100;-72